Time;durP1;ratioP1;P1;durP2;ratioP2;P2;SDS_P1;SDS_P2;PMS_P1;PMS_P2;Temp;Humidity;BMP_temperature;BMP_pressure;BME280_temperature;BME280_humidity;BME280_pressure;Samples;Min_cycle;Max_cycle;Signal;HPM_P1;HPM_P2
2022/06/01 00:03:34;;;;;;;18.10;11.50;;;;;;;14.21;62.51;98282.48;433694;1268;108597;-42
2022/06/01 00:13:43;;;;;;;17.00;11.30;;;;;;;14.09;62.50;98275.47;433671;1268;97913;-42
2022/06/01 00:23:50;;;;;;;19.00;12.10;;;;;;;14.03;62.65;98280.61;433596;1268;111013;-42
2022/06/01 00:44:04;;;;;;;15.80;12.30;;;;;;;14.07;63.19;98349.32;433726;1268;97934;-44
2022/06/01 00:54:13;;;;;;;10.90;8.20;;;;;;;14.03;63.62;98356.80;433606;1268;109221;-39
2022/06/01 01:04:21;;;;;;;11.90;5.20;;;;;;;14.17;63.89;98347.72;433296;1268;97978;-41
2022/06/01 01:14:31;;;;;;;4.20;3.80;;;;;;;14.33;64.08;98359.59;434770;1258;110064;-41
2022/06/01 01:24:40;;;;;;;5.20;3.90;;;;;;;14.41;64.32;98351.58;434109;1268;107734;-42
2022/06/01 01:34:45;;;;;;;;;;;;;;;14.36;64.62;98356.24;434146;1267;98442;-41
2022/06/01 01:45:02;;;;;;;2.20;2.00;;;;;;;14.30;64.65;98363.46;434232;1268;111103;-43
2022/06/01 01:55:15;;;;;;;3.00;1.60;;;;;;;14.30;64.61;98363.94;433464;1267;108593;-43
2022/06/01 02:15:52;;;;;;;6.10;1.60;;;;;;;14.30;64.87;98358.14;434044;1268;111090;-42
2022/06/01 02:26:01;;;;;;;2.00;1.40;;;;;;;14.15;65.19;98360.90;434236;1268;109057;-40
2022/06/01 02:36:05;;;;;;;1.70;1.60;;;;;;;13.99;65.57;98360.29;433659;1268;97997;-43
2022/06/01 02:46:12;;;;;;;1.80;1.30;;;;;;;13.80;66.08;98357.69;434356;1268;108805;-42
2022/06/01 02:56:20;;;;;;;1.20;1.10;;;;;;;13.66;66.63;98350.73;433956;1268;97890;-41
2022/06/01 03:06:27;;;;;;;1.90;1.70;;;;;;;13.54;67.37;98350.98;434195;1268;111048;-41
2022/06/01 03:16:55;;;;;;;1.60;1.50;;;;;;;13.61;68.02;98355.86;434110;1268;108787;-42
2022/06/01 03:37:09;;;;;;;4.00;2.40;;;;;;;13.78;68.42;98351.84;434170;1268;111024;-44
2022/06/01 03:47:16;;;;;;;4.70;2.10;;;;;;;13.77;68.54;98339.55;434216;1268;109340;-41
2022/06/01 03:57:24;;;;;;;3.00;1.80;;;;;;;13.77;68.86;98345.35;434095;1268;97528;-42
2022/06/01 04:07:31;;;;;;;2.80;1.80;;;;;;;13.81;69.09;98355.20;433937;1267;110830;-41
2022/06/01 04:17:39;;;;;;;7.10;1.70;;;;;;;13.93;69.33;98347.16;434097;1268;107931;-41
2022/06/01 04:27:46;;;;;;;2.40;1.80;;;;;;;13.90;69.52;98348.53;434186;1267;97926;-39
2022/06/01 04:38:12;;;;;;;3.70;2.60;;;;;;;13.84;69.72;98356.00;433976;1268;111023;-42
2022/06/01 04:48:20;;;;;;;3.20;1.60;;;;;;;13.91;69.89;98346.67;433998;1268;108956;-41
2022/06/01 04:58:27;;;;;;;1.70;1.60;;;;;;;13.96;70.06;98342.14;434151;1266;97974;-41
2022/06/01 05:08:34;;;;;;;3.40;1.90;;;;;;;14.01;70.20;98339.79;434185;1268;108814;-42
2022/06/01 05:18:41;;;;;;;3.00;1.80;;;;;;;13.98;70.30;98331.84;434154;1268;97929;-41
2022/06/01 05:28:49;;;;;;;7.30;2.60;;;;;;;13.71;70.65;98325.42;434230;1267;112001;-42
2022/06/01 05:38:56;;;;;;;2.50;1.90;;;;;;;13.50;71.22;98314.95;433988;1267;108949;-42
2022/06/01 05:49:02;;;;;;;5.50;3.20;;;;;;;13.71;71.64;98318.77;434257;1266;97899;-40
2022/06/01 05:59:11;;;;;;;4.40;3.20;;;;;;;14.02;71.62;98320.33;434026;1267;107999;-42
2022/06/01 06:09:17;;;;;;;3.10;2.30;;;;;;;14.41;72.08;98312.48;434167;1268;97916;-41
2022/06/01 06:19:23;;;;;;;7.90;3.00;;;;;;;15.37;72.32;98313.66;434036;1268;110956;-41
2022/06/01 06:29:30;;;;;;;3.70;1.60;;;;;;;16.92;71.68;98314.06;434135;1268;109047;-42
2022/06/01 06:39:37;;;;;;;3.00;2.50;;;;;;;17.71;70.02;98309.48;434357;1268;96626;-41
2022/06/01 06:49:45;;;;;;;2.90;2.10;;;;;;;18.29;69.24;98306.30;434236;1268;107960;-41
2022/06/01 06:59:51;;;;;;;4.40;1.30;;;;;;;19.01;68.28;98314.65;434163;1267;97578;-40
2022/06/01 07:30:13;;;;;;;1.40;1.20;;;;;;;20.54;65.59;98341.47;434138;1268;97899;-41
2022/06/01 07:50:50;;;;;;;2.30;1.40;;;;;;;21.49;64.10;98352.39;434374;1267;108845;-41
2022/06/01 08:00:57;;;;;;;2.80;1.00;;;;;;;21.77;62.89;98360.02;434204;1267;97900;-41
2022/06/01 08:11:05;;;;;;;1.40;1.30;;;;;;;22.05;61.92;98369.52;434338;1267;111032;-41
2022/06/01 08:21:12;;;;;;;2.20;1.20;;;;;;;22.34;60.85;98377.83;434074;1267;109444;-42
2022/06/01 08:31:20;;;;;;;2.40;1.40;;;;;;;22.43;59.81;98385.45;434536;1267;97925;-41
2022/06/01 08:41:32;;;;;;;3.00;1.50;;;;;;;22.40;59.12;98388.02;434238;1268;97900;-40
2022/06/01 08:51:40;;;;;;;3.40;1.60;;;;;;;22.81;58.73;98387.06;433964;1268;111042;-44
2022/06/01 09:01:57;;;;;;;1.40;1.30;;;;;;;23.06;57.71;98394.94;434076;1267;108788;-42
2022/06/01 09:12:06;;;;;;;2.50;1.60;;;;;;;23.30;56.80;98395.55;434254;1268;98217;-41
2022/06/01 09:32:37;;;;;;;6.00;1.90;;;;;;;23.11;54.61;98402.98;433992;1267;336983;-43
2022/06/01 09:42:51;;;;;;;1.90;1.40;;;;;;;22.61;54.02;98403.48;434379;1268;108400;-44
2022/06/01 09:52:56;;;;;;;1.30;1.20;;;;;;;22.91;53.57;98405.95;433908;1268;97930;-41
2022/06/01 10:13:35;;;;;;;1.60;1.30;;;;;;;23.74;50.93;98415.52;433928;1268;108577;-44
2022/06/01 10:23:48;;;;;;;2.10;1.10;;;;;;;23.91;49.10;98419.48;433857;1268;96647;-42
2022/06/01 10:33:58;;;;;;;2.10;1.50;;;;;;;24.19;47.26;98413.33;434017;1268;108725;-42
2022/06/01 10:44:03;;;;;;;3.00;1.50;;;;;;;24.26;47.43;98411.29;434289;1267;97967;-41
2022/06/01 10:54:08;;;;;;;3.70;1.30;;;;;;;23.92;47.15;98415.46;434054;1267;111308;-41
2022/06/01 11:04:53;;;;;;;1.50;1.40;;;;;;;23.80;46.70;98409.21;434125;1268;109522;-42
2022/06/01 11:15:05;;;;;;;3.10;1.30;;;;;;;23.59;45.51;98413.56;433757;1268;96745;-45
2022/06/01 11:25:18;;;;;;;1.80;1.20;;;;;;;23.95;45.81;98407.39;433890;1267;112449;-41
2022/06/01 11:35:28;;;;;;;4.20;1.50;;;;;;;23.79;45.31;98414.66;433634;1267;108831;-41
2022/06/01 11:45:36;;;;;;;2.70;1.70;;;;;;;23.56;45.30;98409.37;434089;1268;98011;-42
2022/06/01 11:55:45;;;;;;;3.90;1.70;;;;;;;24.09;45.60;98406.64;433986;1267;108748;-44
2022/06/01 12:05:59;;;;;;;2.50;2.10;;;;;;;24.16;45.23;98409.79;433890;1268;99215;-44
2022/06/01 12:36:59;;;;;;;3.70;1.60;;;;;;;23.91;44.76;98393.32;433576;1268;99280;-41
2022/06/01 12:47:06;;;;;;;2.40;1.60;;;;;;;23.36;44.56;98400.46;434000;1268;108869;-41
2022/06/01 12:57:23;;;;;;;2.80;1.90;;;;;;;22.89;43.75;98417.11;434222;1268;98000;-41
2022/06/01 13:07:29;;;;;;;5.30;1.90;;;;;;;21.37;45.11;98441.48;433976;1268;112516;-43
2022/06/01 13:17:46;;;;;;;3.80;1.70;;;;;;;20.58;47.43;98453.35;433829;1268;108529;-42
2022/06/01 13:38:04;;;;;;;3.20;1.50;;;;;;;20.35;48.26;98458.59;434120;1267;108400;-42
2022/06/01 13:48:15;;;;;;;5.40;2.10;;;;;;;20.51;48.48;98453.11;434089;1268;99324;-42
2022/06/01 13:58:29;;;;;;;5.50;1.30;;;;;;;20.66;48.25;98456.46;434018;1268;112379;-45
2022/06/01 14:08:40;;;;;;;3.00;2.00;;;;;;;20.77;47.26;98454.34;433812;1268;108794;-41
2022/06/01 14:18:50;;;;;;;3.30;1.10;;;;;;;20.97;47.10;98452.71;434205;1267;99270;-42
2022/06/01 14:28:56;;;;;;;2.30;1.30;;;;;;;21.15;47.04;98447.20;433497;1268;108397;-41
2022/06/01 14:39:09;;;;;;;1.70;1.20;;;;;;;21.23;46.81;98442.02;433983;1267;98044;-44
2022/06/01 14:49:18;;;;;;;1.60;1.50;;;;;;;21.27;46.44;98441.56;433971;1267;112265;-41
2022/06/01 14:59:25;;;;;;;1.30;1.20;;;;;;;21.27;46.21;98439.47;434107;1268;107010;-42
2022/06/01 15:09:35;;;;;;;2.60;2.30;;;;;;;21.22;45.91;98436.41;434057;1268;99234;-43
2022/06/01 15:19:46;;;;;;;1.70;1.50;;;;;;;21.36;45.93;98437.19;434086;1267;108889;-44
2022/06/01 15:40:19;;;;;;;2.60;1.70;;;;;;;21.51;44.90;98436.17;434188;1266;112591;-43
2022/06/01 15:50:27;;;;;;;4.30;1.80;;;;;;;21.52;45.49;98435.45;434043;1268;108960;-42
2022/06/01 16:00:35;;;;;;;3.10;2.20;;;;;;;21.45;45.25;98430.95;434244;1268;99257;-42
2022/06/01 16:10:41;;;;;;;;;;;;;;;21.38;45.50;98430.02;433979;1267;108908;-42
2022/06/01 16:20:51;;;;;;;1.50;1.40;;;;;;;21.41;45.21;98433.98;434144;1268;99326;-42
2022/06/01 16:30:58;;;;;;;1.80;1.10;;;;;;;21.37;44.80;98434.73;433984;1267;111375;-41
2022/06/01 16:41:07;;;;;;;4.10;2.20;;;;;;;21.30;45.14;98441.14;434011;1267;109360;-45
2022/06/01 16:51:14;;;;;;;4.80;2.30;;;;;;;21.16;45.73;98445.02;433948;1267;98837;-44
2022/06/01 17:11:29;;;;;;;3.20;2.10;;;;;;;20.75;46.42;98453.48;433739;1268;100721;-42
2022/06/01 17:21:41;;;;;;;7.80;1.90;;;;;;;20.57;46.81;98451.31;433919;1267;111673;-41
2022/06/01 17:31:48;;;;;;;6.50;3.50;;;;;;;20.43;47.37;98451.58;433922;1268;108073;-42
2022/06/01 17:41:56;;;;;;;7.70;2.30;;;;;;;20.22;47.68;98459.05;434018;1268;99302;-45
2022/06/01 17:52:03;;;;;;;4.30;2.30;;;;;;;19.93;47.92;98457.61;434029;1268;108775;-43
2022/06/01 18:12:19;;;;;;;2.90;2.50;;;;;;;19.32;49.08;98452.50;434109;1268;112372;-44
2022/06/01 18:22:26;;;;;;;4.60;2.20;;;;;;;19.06;49.59;98454.95;433780;1268;108817;-44
2022/06/01 18:32:33;;;;;;;4.10;2.70;;;;;;;18.68;50.28;98455.05;433868;1268;99280;-42
2022/06/01 18:42:42;;;;;;;4.00;3.00;;;;;;;18.20;50.53;98451.12;433906;1268;109256;-42
2022/06/01 18:52:51;;;;;;;6.30;3.50;;;;;;;17.68;51.54;98457.48;433873;1267;99920;-42
2022/06/01 19:02:58;;;;;;;7.80;4.20;;;;;;;17.10;52.32;98465.98;434093;1268;112549;-46
2022/06/01 19:13:05;;;;;;;7.10;5.30;;;;;;;16.76;53.35;98468.27;433955;1268;108813;-46
2022/06/01 19:23:13;;;;;;;7.90;6.00;;;;;;;16.46;54.22;98475.34;433884;1268;99171;-42
2022/06/01 19:33:21;;;;;;;6.60;5.30;;;;;;;16.29;55.15;98475.12;433931;1267;108134;-42
2022/06/01 19:53:58;;;;;;;8.00;5.90;;;;;;;15.91;56.40;98479.98;434009;1268;112425;-43
2022/06/01 20:04:07;;;;;;;10.00;6.30;;;;;;;15.66;57.07;98469.57;433932;1268;108440;-40
2022/06/01 20:14:13;;;;;;;11.20;6.50;;;;;;;15.41;57.63;98469.38;434226;1268;99293;-42
2022/06/01 20:24:21;;;;;;;14.40;6.00;;;;;;;15.27;58.13;98472.16;433850;1268;108819;-44
2022/06/01 20:34:28;;;;;;;10.40;6.10;;;;;;;15.28;58.62;98472.60;434007;1268;99254;-44
2022/06/01 20:54:42;;;;;;;7.50;6.10;;;;;;;15.39;58.98;98474.16;433889;1268;108746;-42
2022/06/01 21:04:49;;;;;;;7.00;5.40;;;;;;;15.45;59.09;98477.85;434055;1268;99280;-43
2022/06/01 21:14:57;;;;;;;11.70;5.80;;;;;;;15.68;58.96;98485.04;434041;1268;108969;-44
2022/06/01 21:25:04;;;;;;;8.30;6.50;;;;;;;15.61;58.95;98487.95;433637;1268;678004;-42
2022/06/01 21:35:12;;;;;;;7.20;6.50;;;;;;;15.39;59.05;98490.67;433868;1268;112550;-44
2022/06/01 21:45:19;;;;;;;15.30;8.00;;;;;;;15.16;59.23;98494.24;433851;1267;108971;-42
2022/06/01 21:55:26;;;;;;;9.90;5.20;;;;;;;15.18;59.56;98495.75;433343;1268;99270;-44
2022/06/01 22:05:35;;;;;;;11.30;6.50;;;;;;;15.14;60.01;98483.97;433873;1268;108907;-41
2022/06/01 22:15:41;;;;;;;;;;;;;;;14.89;60.82;98479.09;434044;1268;99372;-42
2022/06/01 22:25:48;;;;;;;11.90;7.60;;;;;;;14.71;61.51;98480.41;433965;1268;112477;-41
2022/06/01 22:46:21;;;;;;;10.50;7.40;;;;;;;14.64;62.33;98457.23;433466;1268;99274;-40
2022/06/01 23:06:35;;;;;;;12.90;8.40;;;;;;;14.76;63.22;98425.92;433861;1268;98923;-41
2022/06/01 23:16:42;;;;;;;12.40;8.60;;;;;;;14.87;63.25;98438.73;433955;1268;111386;-43
2022/06/01 23:26:50;;;;;;;15.50;7.80;;;;;;;14.90;63.20;98429.20;433928;1268;108821;-44
2022/06/01 23:37:09;;;;;;;12.60;8.10;;;;;;;14.91;63.33;98421.54;433710;1268;99263;-43
2022/06/01 23:57:52;;;;;;;16.80;9.00;;;;;;;15.13;63.50;98462.39;433558;1268;99296;-43
